Time;durP1;ratioP1;P1;durP2;ratioP2;P2;SDS_P1;SDS_P2;PMS_P1;PMS_P2;Temp;Humidity;BMP_temperature;BMP_pressure;BME280_temperature;BME280_humidity;BME280_pressure;Samples;Min_cycle;Max_cycle;Signal;HPM_P1;HPM_P2
2021/01/15 00:00:48;;;;;;;;;;;;;;;-3.41;94.55;92649.12;1062781;56;20154;-85
2021/01/15 00:01:48;;;;;;;;;;;;;;;-3.44;94.63;92657.62;1062547;56;20174;-84
2021/01/15 00:02:49;;;;;;;;;;;;;;;-3.53;94.80;92654.44;1062509;56;20162;-85
2021/01/15 00:03:49;;;;;;;;;;;;;;;-3.52;94.15;92658.56;1064677;55;21170;-84
2021/01/15 00:04:50;;;;;;;;;;;;;;;-3.50;95.32;92655.63;1060514;56;20159;-83
2021/01/15 00:05:50;;;;;;;;;;;;;;;-3.55;94.63;92664.47;1058387;56;20159;-83
2021/01/15 00:06:55;;;;;;;;;;;;;;;-3.53;94.95;92658.91;1062660;56;20654;-86
2021/01/15 00:07:55;;;;;;;;;;;;;;;-3.61;94.67;92660.59;1058605;56;20209;-86
2021/01/15 00:08:56;;;;;;;;;;;;;;;-3.57;94.74;92659.56;1060365;56;20155;-84
2021/01/15 00:09:57;;;;;;;;;;;;;;;-3.48;95.32;92667.25;1064723;55;20709;-85
2021/01/15 00:10:57;;;;;;;;;;;;;;;-3.51;95.19;92659.31;1062527;56;20623;-85
2021/01/15 00:11:58;;;;;;;;;;;;;;;-3.57;95.29;92667.41;1060490;56;20584;-84
2021/01/15 00:12:59;;;;;;;;;;;;;;;-3.52;95.50;92658.56;1060442;56;20257;-83
2021/01/15 00:14:00;;;;;;;;;;;;;;;-3.54;94.61;92671.22;1060458;56;20651;-85
2021/01/15 00:15:01;;;;;;;;;;;;;;;-3.50;94.42;92666.84;1062621;55;20166;-84
2021/01/15 00:16:01;;;;;;;;;;;;;;;-3.51;95.01;92660.09;1062578;56;20169;-84
2021/01/15 00:17:01;;;;;;;;;;;;;;;-3.56;95.00;92658.50;1060467;56;20230;-84
2021/01/15 00:18:04;;;;;;;;;;;;;;;-3.46;94.96;92661.69;1062617;56;20601;-84
2021/01/15 00:19:04;;;;;;;;;;;;;;;-3.53;94.72;92653.69;1062728;55;20158;-85
2021/01/15 00:20:05;;;;;;;;;;;;;;;-3.50;94.65;92660.84;1062768;56;20162;-84
2021/01/15 00:21:06;;;;;;;;;;;;;;;-3.54;95.11;92655.53;1062640;56;20182;-84
2021/01/15 00:22:08;;;;;;;;;;;;;;;-3.47;94.78;92660.16;1062426;56;20251;-85
2021/01/15 00:23:08;;;;;;;;;;;;;;;-3.55;95.21;92662.63;1062563;56;20247;-84
2021/01/15 00:24:09;;;;;;;;;;;;;;;-3.55;95.31;92660.00;1060373;56;20357;-83
2021/01/15 00:25:10;;;;;;;;;;;;;;;-3.61;95.93;92661.34;1064780;55;20650;-85
2021/01/15 00:26:14;;;;;;;;;;;;;;;-3.53;95.15;92662.28;1062655;56;20166;-86
2021/01/15 00:27:14;;;;;;;;;;;;;;;-3.57;94.88;92667.41;1058549;56;20167;-84
2021/01/15 00:28:15;;;;;;;;;;;;;;;-3.42;95.06;92665.91;1062736;56;20587;-84
2021/01/15 00:29:18;;;;;;;;;;;;;;;-3.46;95.43;92661.69;1060463;56;20169;-84
2021/01/15 00:30:18;;;;;;;;;;;;;;;-3.52;94.92;92666.41;1060526;56;20173;-86
2021/01/15 00:31:19;;;;;;;;;;;;;;;-3.45;95.37;92671.03;1064732;55;20169;-84
2021/01/15 00:32:20;;;;;;;;;;;;;;;-3.55;94.75;92669.72;1064830;55;21169;-85
2021/01/15 00:33:21;;;;;;;;;;;;;;;-3.60;95.05;92660.28;1064902;55;20158;-84
2021/01/15 00:34:21;;;;;;;;;;;;;;;-3.52;95.09;92663.78;1060689;56;20174;-84
2021/01/15 00:35:22;;;;;;;;;;;;;;;-3.61;95.60;92666.56;1062890;56;20193;-85
2021/01/15 00:36:22;;;;;;;;;;;;;;;-3.61;95.35;92666.56;1062681;56;20153;-83
2021/01/15 00:37:23;;;;;;;;;;;;;;;-3.57;95.45;92670.03;1062707;56;20681;-84
2021/01/15 00:38:24;;;;;;;;;;;;;;;-3.56;95.25;92666.34;1062753;56;20176;-83
2021/01/15 00:39:25;;;;;;;;;;;;;;;-3.51;95.38;92667.94;1058405;56;20616;-84
2021/01/15 00:40:25;;;;;;;;;;;;;;;-3.61;95.06;92665.81;1062767;56;20635;-82
2021/01/15 00:41:26;;;;;;;;;;;;;;;-3.55;95.83;92669.72;1064865;55;20311;-84
2021/01/15 00:42:26;;;;;;;;;;;;;;;-3.52;95.82;92674.22;1062829;56;20212;-85
2021/01/15 00:43:27;;;;;;;;;;;;;;;-3.58;95.80;92672.97;1062575;56;20642;-84
2021/01/15 00:44:27;;;;;;;;;;;;;;;-3.49;95.17;92670.97;1062672;56;20189;-86
2021/01/15 00:45:31;;;;;;;;;;;;;;;-3.47;94.22;92670.59;1064870;55;20657;-85
2021/01/15 00:46:32;;;;;;;;;;;;;;;-3.53;94.29;92671.97;1064872;55;20213;-87
2021/01/15 00:47:33;;;;;;;;;;;;;;;-3.50;95.37;92668.69;1064882;55;20157;-83
2021/01/15 00:48:34;;;;;;;;;;;;;;;-3.50;94.62;92674.66;1060486;56;20158;-83
2021/01/15 00:49:34;;;;;;;;;;;;;;;-3.53;95.32;92671.97;1058332;56;20186;-85
2021/01/15 00:50:35;;;;;;;;;;;;;;;-3.53;95.75;92674.56;1060514;56;20159;-86
2021/01/15 00:51:36;;;;;;;;;;;;;;;-3.62;96.15;92675.50;1062941;55;20177;-84
2021/01/15 00:52:36;;;;;;;;;;;;;;;-3.59;95.51;92669.63;1062731;56;20296;-85
2021/01/15 00:53:37;;;;;;;;;;;;;;;-3.57;95.68;92671.88;1062428;56;20280;-85
2021/01/15 00:54:37;;;;;;;;;;;;;;;-3.59;95.51;92674.84;1065069;55;20153;-83
2021/01/15 00:55:40;;;;;;;;;;;;;;;-3.56;95.41;92668.94;1064806;55;20646;-85
2021/01/15 00:56:41;;;;;;;;;;;;;;;-3.61;95.98;92668.44;1062783;56;20246;-83
2021/01/15 00:57:42;;;;;;;;;;;;;;;-3.43;95.59;92672.19;1060695;56;20664;-85
2021/01/15 00:58:42;;;;;;;;;;;;;;;-3.50;95.02;92674.66;1060596;56;20155;-84
2021/01/15 00:59:43;;;;;;;;;;;;;;;-3.52;95.64;92673.47;1062693;56;20166;-85
2021/01/15 01:00:44;;;;;;;;;;;;;;;-3.49;95.43;92673.56;1062737;56;20218;-84
2021/01/15 01:01:45;;;;;;;;;;;;;;;-3.66;95.45;92663.47;1060389;56;20178;-85
2021/01/15 01:02:46;;;;;;;;;;;;;;;-3.57;95.24;92671.88;1062858;55;20253;-83
2021/01/15 01:03:48;;;;;;;;;;;;;;;-3.53;95.13;92669.34;1064670;55;20188;-86
2021/01/15 01:04:50;;;;;;;;;;;;;;;-3.60;95.89;92675.94;1062685;56;20182;-84
2021/01/15 01:05:50;;;;;;;;;;;;;;;-3.60;95.96;92680.38;1066880;55;20750;-84
2021/01/15 01:06:51;;;;;;;;;;;;;;;-3.53;95.34;92674.56;1067135;55;20193;-84
2021/01/15 01:07:51;;;;;;;;;;;;;;;-3.47;95.66;92678.44;1067312;55;20157;-86
2021/01/15 01:08:52;;;;;;;;;;;;;;;-3.47;95.11;92679.19;1064708;55;20251;-83
2021/01/15 01:09:52;;;;;;;;;;;;;;;-3.41;95.27;92677.88;1066936;55;20262;-84
2021/01/15 01:10:53;;;;;;;;;;;;;;;-3.45;94.31;92677.03;1066979;55;20638;-85
2021/01/15 01:11:56;;;;;;;;;;;;;;;-3.46;94.58;92680.75;1064712;55;20193;-85
2021/01/15 01:12:57;;;;;;;;;;;;;;;-3.47;94.93;92681.06;1067047;55;20225;-84
2021/01/15 01:13:59;;;;;;;;;;;;;;;-3.50;95.28;92679.91;1064797;55;20189;-83
2021/01/15 01:14:59;;;;;;;;;;;;;;;-3.56;95.98;92676.78;1062621;56;20162;-83
2021/01/15 01:15:59;;;;;;;;;;;;;;;-3.58;95.28;92680.81;1060384;56;20174;-85
2021/01/15 01:17:02;;;;;;;;;;;;;;;-3.50;96.20;92679.13;1064865;55;20177;-85
2021/01/15 01:18:03;;;;;;;;;;;;;;;-3.47;96.10;92681.06;1064959;55;20844;-83
2021/01/15 01:19:03;;;;;;;;;;;;;;;-3.49;96.04;92678.03;1062619;55;20181;-85
2021/01/15 01:20:05;;;;;;;;;;;;;;;-3.50;96.86;92679.13;1062186;56;20256;-82
2021/01/15 01:21:07;;;;;;;;;;;;;;;-3.54;96.10;92684.28;1067095;55;20275;-85
2021/01/15 01:22:09;;;;;;;;;;;;;;;-3.47;96.13;92679.19;1066852;55;20266;-84
2021/01/15 01:23:09;;;;;;;;;;;;;;;-3.50;96.69;92681.75;1064463;55;20193;-84
2021/01/15 01:24:10;;;;;;;;;;;;;;;-3.45;96.80;92678.88;1064577;55;21197;-84
2021/01/15 01:25:10;;;;;;;;;;;;;;;-3.44;96.38;92680.38;1064573;55;20768;-85
2021/01/15 01:26:11;;;;;;;;;;;;;;;-3.31;96.62;92681.81;1064728;55;20177;-83
2021/01/15 01:27:12;;;;;;;;;;;;;;;-3.41;96.56;92684.94;1064507;55;20638;-84
2021/01/15 01:28:12;;;;;;;;;;;;;;;-3.31;96.33;92679.19;1060317;56;20670;-83
2021/01/15 01:29:13;;;;;;;;;;;;;;;-3.38;95.91;92679.81;1062309;56;20159;-84
2021/01/15 01:30:16;;;;;;;;;;;;;;;-3.41;95.56;92682.34;1066944;55;20249;-85
2021/01/15 01:31:18;;;;;;;;;;;;;;;-3.41;96.27;92685.69;1066609;55;21264;-84
2021/01/15 01:32:18;;;;;;;;;;;;;;;-3.35;94.97;92688.81;1062343;56;20180;-84
2021/01/15 01:33:20;;;;;;;;;;;;;;;-3.49;94.71;92686.63;1062413;56;20238;-82
2021/01/15 01:34:21;;;;;;;;;;;;;;;-3.41;94.74;92688.31;1062535;56;20181;-83
2021/01/15 01:35:21;;;;;;;;;;;;;;;-3.46;95.22;92690.44;1064593;55;20188;-85
2021/01/15 01:36:22;;;;;;;;;;;;;;;-3.39;95.27;92680.88;1066763;55;20161;-84
2021/01/15 01:37:22;;;;;;;;;;;;;;;-3.40;95.44;92702.13;1064570;55;20170;-84
2021/01/15 01:38:22;;;;;;;;;;;;;;;-3.41;94.67;92698.75;1062559;56;20587;-84
2021/01/15 01:39:23;;;;;;;;;;;;;;;-3.44;95.26;92702.03;1064693;55;20157;-84
2021/01/15 01:40:24;;;;;;;;;;;;;;;-3.47;95.22;92692.25;1062565;56;20299;-83
2021/01/15 01:41:24;;;;;;;;;;;;;;;-3.36;95.34;92697.75;1060522;56;20288;-82
2021/01/15 01:42:25;;;;;;;;;;;;;;;-3.34;94.34;92700.75;1064486;56;20165;-84
2021/01/15 01:43:26;;;;;;;;;;;;;;;-3.36;95.30;92698.50;1066834;55;20166;-83
2021/01/15 01:44:26;;;;;;;;;;;;;;;-3.27;94.22;92700.94;1066740;55;20174;-85
2021/01/15 01:45:27;;;;;;;;;;;;;;;-3.40;95.24;92704.75;1062573;56;20177;-84
2021/01/15 01:46:27;;;;;;;;;;;;;;;-3.41;94.74;92708.47;1060444;56;20182;-83
2021/01/15 01:47:28;;;;;;;;;;;;;;;-3.42;94.46;92702.47;1060169;56;20159;-83
2021/01/15 01:48:29;;;;;;;;;;;;;;;-3.40;95.29;92715.94;1064613;55;20173;-86
2021/01/15 01:49:30;;;;;;;;;;;;;;;-3.41;94.98;92706.59;1064601;55;20184;-87
2021/01/15 01:50:31;;;;;;;;;;;;;;;-3.36;94.80;92710.81;1060511;56;20198;-83
2021/01/15 01:51:32;;;;;;;;;;;;;;;-3.41;94.66;92718.91;1062706;55;20197;-86
2021/01/15 01:52:34;;;;;;;;;;;;;;;-3.49;95.63;92714.59;1064739;55;20161;-82
2021/01/15 01:53:37;;;;;;;;;;;;;;;-3.45;95.72;92710.22;1064764;55;20217;-83
2021/01/15 01:54:38;;;;;;;;;;;;;;;-3.52;95.20;92721.25;1064807;55;20162;-83
2021/01/15 01:55:39;;;;;;;;;;;;;;;-3.47;95.46;92717.62;1062329;56;20650;-83
2021/01/15 01:56:40;;;;;;;;;;;;;;;-3.51;95.71;92714.16;1062451;56;20170;-84
2021/01/15 01:57:41;;;;;;;;;;;;;;;-3.47;95.59;92715.78;1062483;55;20663;-85
2021/01/15 01:58:42;;;;;;;;;;;;;;;-3.47;96.02;92723.59;1062569;56;20205;-83
2021/01/15 01:59:42;;;;;;;;;;;;;;;-3.49;95.22;92723.19;1060314;56;20154;-83
2021/01/15 02:00:44;;;;;;;;;;;;;;;-3.49;95.06;92723.19;1060233;56;20155;-84
2021/01/15 02:01:44;;;;;;;;;;;;;;;-3.53;95.84;92719.75;1060433;56;20254;-86
2021/01/15 02:02:45;;;;;;;;;;;;;;;-3.45;95.54;92721.44;1062513;56;20154;-83
2021/01/15 02:03:45;;;;;;;;;;;;;;;-3.40;95.90;92720.41;1066781;55;20161;-84
2021/01/15 02:04:46;;;;;;;;;;;;;;;-3.42;95.28;92717.41;1068419;55;20160;-84
2021/01/15 02:05:46;;;;;;;;;;;;;;;-3.44;94.52;92716.97;1066628;55;20286;-85
2021/01/15 02:06:47;;;;;;;;;;;;;;;-3.51;95.75;92714.94;1062517;56;20154;-84
2021/01/15 02:07:49;;;;;;;;;;;;;;;-3.40;96.23;92723.78;1064424;55;20192;-84
2021/01/15 02:08:49;;;;;;;;;;;;;;;-3.42;94.84;92720.00;1062358;56;21273;-84
2021/01/15 02:10:08;;;;;;;;;;;;;;;-3.39;95.63;92720.06;1060339;56;20190;-84
2021/01/15 02:11:14;;;;;;;;;;;;;;;-3.39;94.43;92716.69;1064373;55;20251;-83
2021/01/15 02:12:33;;;;;;;;;;;;;;;-3.36;95.62;92722.03;1062798;55;20198;-83
2021/01/15 02:14:00;;;;;;;;;;;;;;;-3.42;94.89;92717.41;1065112;55;20162;-85
2021/01/15 02:15:14;;;;;;;;;;;;;;;-3.43;96.01;92715.84;1061200;55;20190;-82
2021/01/15 02:16:19;;;;;;;;;;;;;;;-3.47;95.30;92717.62;1062645;56;20158;-84
2021/01/15 02:17:21;;;;;;;;;;;;;;;-3.48;96.05;92722.09;1060439;56;20186;-83
2021/01/15 02:18:40;;;;;;;;;;;;;;;-3.48;95.42;92724.72;1062638;55;20201;-87
2021/01/15 02:19:59;;;;;;;;;;;;;;;-3.55;95.01;92720.09;1065131;55;20661;-86
2021/01/15 02:21:18;;;;;;;;;;;;;;;-3.50;95.28;92726.91;1064534;55;20162;-84
2021/01/15 02:22:37;;;;;;;;;;;;;;;-3.46;96.17;92721.78;1061338;56;20637;-86
2021/01/15 02:23:44;;;;;;;;;;;;;;;-3.44;96.53;92722.19;1065636;55;20266;-83
2021/01/15 02:24:58;;;;;;;;;;;;;;;-3.42;95.36;92727.84;1064266;55;21135;-86
2021/01/15 02:26:13;;;;;;;;;;;;;;;-3.44;95.61;92722.19;1060942;56;20663;-84
2021/01/15 02:27:13;;;;;;;;;;;;;;;-3.44;96.18;92728.16;1061043;56;20194;-87
2021/01/15 02:28:16;;;;;;;;;;;;;;;-3.45;96.44;92723.28;1066671;55;20154;-84
2021/01/15 02:29:17;;;;;;;;;;;;;;;-3.45;96.18;92720.69;1066413;55;20216;-84
2021/01/15 02:30:22;;;;;;;;;;;;;;;-3.41;95.95;92726.75;1062278;56;20272;-83
2021/01/15 02:31:50;;;;;;;;;;;;;;;-3.41;95.00;92724.13;1060215;56;20163;-83
2021/01/15 02:33:07;;;;;;;;;;;;;;;-3.50;95.65;92728.78;1065449;55;20285;-83
2021/01/15 02:34:21;;;;;;;;;;;;;;;-3.57;96.51;92724.88;1064941;55;20169;-83
2021/01/15 02:35:31;;;;;;;;;;;;;;;-3.51;95.76;92722.78;1062622;56;20186;-85
2021/01/15 02:36:35;;;;;;;;;;;;;;;-3.39;96.39;92730.53;1062961;55;20173;-86
2021/01/15 02:37:54;;;;;;;;;;;;;;;-3.39;95.01;92729.75;1062212;56;20177;-84
2021/01/15 02:38:59;;;;;;;;;;;;;;;-3.43;95.45;92727.06;1061386;56;20701;-83
2021/01/15 02:40:06;;;;;;;;;;;;;;;-3.47;95.37;92736.66;1062271;55;21249;-84
2021/01/15 02:41:12;;;;;;;;;;;;;;;-3.42;96.53;92726.00;1062574;56;20259;-84
2021/01/15 02:42:13;;;;;;;;;;;;;;;-3.44;94.89;92727.41;1060357;56;20162;-83
2021/01/15 02:43:15;;;;;;;;;;;;;;;-3.45;94.60;92736.34;1064632;55;20247;-84
2021/01/15 02:44:17;;;;;;;;;;;;;;;-3.46;95.25;92735.59;1066475;55;20249;-83
2021/01/15 02:45:18;;;;;;;;;;;;;;;-3.48;95.70;92737.00;1062302;56;20271;-84
2021/01/15 02:46:25;;;;;;;;;;;;;;;-3.45;94.90;92738.97;1062217;56;20174;-83
2021/01/15 02:47:29;;;;;;;;;;;;;;;-3.47;95.75;92743.75;1062373;56;20240;-85
2021/01/15 02:48:30;;;;;;;;;;;;;;;-3.40;95.40;92739.47;1062542;55;20192;-84
2021/01/15 02:49:33;;;;;;;;;;;;;;;-3.39;95.02;92740.97;1062198;56;20157;-82
2021/01/15 02:50:35;;;;;;;;;;;;;;;-3.43;95.22;92734.91;1062303;55;20225;-86
2021/01/15 02:51:38;;;;;;;;;;;;;;;-3.32;94.28;92730.69;1064255;56;20192;-84
2021/01/15 02:52:40;;;;;;;;;;;;;;;-3.41;93.83;92747.66;1062329;55;20193;-83
2021/01/15 02:53:41;;;;;;;;;;;;;;;-3.47;94.65;92741.91;1062385;56;20188;-84
2021/01/15 02:54:42;;;;;;;;;;;;;;;-3.50;95.64;92737.37;1062368;56;20170;-84
2021/01/15 02:55:44;;;;;;;;;;;;;;;-3.52;95.58;92747.38;1062158;56;20162;-83
2021/01/15 02:56:44;;;;;;;;;;;;;;;-3.51;95.42;92745.50;1062165;56;20290;-84
2021/01/15 02:57:45;;;;;;;;;;;;;;;-3.46;95.14;92745.28;1062104;56;20308;-84
2021/01/15 02:58:47;;;;;;;;;;;;;;;-3.42;95.10;92741.66;1062088;56;20263;-85
2021/01/15 02:59:48;;;;;;;;;;;;;;;-3.47;94.56;92744.50;1062269;55;20162;-83
2021/01/15 03:00:48;;;;;;;;;;;;;;;-3.40;95.40;92747.31;1062058;56;20706;-84
2021/01/15 03:01:53;;;;;;;;;;;;;;;-3.49;94.03;92740.72;1062290;56;20705;-83
2021/01/15 03:03:12;;;;;;;;;;;;;;;-3.49;94.73;92740.72;1062635;55;20166;-83
2021/01/15 03:04:20;;;;;;;;;;;;;;;-3.43;93.96;92744.59;1064662;55;20188;-83
2021/01/15 03:05:27;;;;;;;;;;;;;;;-3.53;94.75;92742.50;1064300;55;20654;-85
2021/01/15 03:06:37;;;;;;;;;;;;;;;-3.52;94.88;92744.75;1064602;55;20150;-84
2021/01/15 03:07:39;;;;;;;;;;;;;;;-3.52;95.32;92747.38;1064472;56;20616;-85
2021/01/15 03:08:42;;;;;;;;;;;;;;;-3.57;94.69;92743.16;1062442;55;20193;-84
2021/01/15 03:09:44;;;;;;;;;;;;;;;-3.52;95.65;92744.00;1064452;56;20196;-83
2021/01/15 03:10:45;;;;;;;;;;;;;;;-3.55;94.64;92743.59;1064566;55;20158;-84
2021/01/15 03:11:46;;;;;;;;;;;;;;;-3.53;94.49;92740.62;1064301;56;20165;-85
2021/01/15 03:12:48;;;;;;;;;;;;;;;-3.53;94.54;92747.72;1064415;55;20262;-83
2021/01/15 03:13:50;;;;;;;;;;;;;;;-3.61;94.49;92752.75;1062199;56;20599;-82
2021/01/15 03:14:52;;;;;;;;;;;;;;;-3.52;95.46;92746.63;1062451;55;20161;-85
2021/01/15 03:15:53;;;;;;;;;;;;;;;-3.50;95.10;92752.28;1064496;55;20236;-83
2021/01/15 03:16:54;;;;;;;;;;;;;;;-3.56;95.53;92760.37;1062182;56;20158;-85
2021/01/15 03:17:55;;;;;;;;;;;;;;;-3.58;95.63;92754.69;1062423;55;20185;-84
2021/01/15 03:18:58;;;;;;;;;;;;;;;-3.56;95.48;92749.12;1064366;55;20563;-85
2021/01/15 03:19:59;;;;;;;;;;;;;;;-3.46;94.80;92747.91;1064335;56;20184;-83
2021/01/15 03:21:03;;;;;;;;;;;;;;;-3.56;94.79;92749.91;1062262;56;20659;-82
2021/01/15 03:22:13;;;;;;;;;;;;;;;-3.53;94.75;92755.56;1062325;56;20162;-84
2021/01/15 03:23:15;;;;;;;;;;;;;;;-3.53;94.75;92753.69;1060677;56;20261;-83
2021/01/15 03:24:15;;;;;;;;;;;;;;;-3.48;95.06;92757.91;1062305;56;20667;-85
2021/01/15 03:25:16;;;;;;;;;;;;;;;-3.53;94.86;92755.56;1062195;56;20166;-84
2021/01/15 03:26:17;;;;;;;;;;;;;;;-3.52;94.52;92763.03;1064478;55;20162;-82
2021/01/15 03:27:18;;;;;;;;;;;;;;;-3.55;94.61;92759.25;1064321;56;20180;-83
2021/01/15 03:28:19;;;;;;;;;;;;;;;-3.53;94.01;92761.53;1062418;55;20159;-84
2021/01/15 03:29:20;;;;;;;;;;;;;;;-3.50;95.39;92765.34;1064612;56;20173;-83
2021/01/15 03:30:22;;;;;;;;;;;;;;;-3.57;94.80;92763.28;1066659;55;20162;-84
2021/01/15 03:31:24;;;;;;;;;;;;;;;-3.62;95.07;92759.06;1066688;55;20265;-84
2021/01/15 03:32:25;;;;;;;;;;;;;;;-3.61;94.61;92765.06;1062209;56;20163;-86
2021/01/15 03:33:25;;;;;;;;;;;;;;;-3.67;94.60;92766.41;1064604;56;20267;-83
2021/01/15 03:34:26;;;;;;;;;;;;;;;-3.69;94.90;92758.88;1066578;55;20161;-84
2021/01/15 03:35:28;;;;;;;;;;;;;;;-3.68;95.25;92770.88;1064368;55;20181;-85
2021/01/15 03:36:29;;;;;;;;;;;;;;;-3.73;95.42;92768.50;1062246;56;20209;-84
2021/01/15 03:37:29;;;;;;;;;;;;;;;-3.73;94.80;92765.91;1062014;56;20159;-84
2021/01/15 03:38:30;;;;;;;;;;;;;;;-3.66;94.78;92767.91;1064167;56;20158;-84
2021/01/15 03:39:31;;;;;;;;;;;;;;;-3.68;94.62;92764.91;1064404;55;20173;-83
2021/01/15 03:40:36;;;;;;;;;;;;;;;-3.65;94.24;92769.44;1064383;55;20681;-84
2021/01/15 03:41:36;;;;;;;;;;;;;;;-3.68;95.51;92773.50;1062167;56;20178;-83
2021/01/15 03:42:36;;;;;;;;;;;;;;;-3.69;94.85;92773.81;1062150;56;21088;-84
2021/01/15 03:43:37;;;;;;;;;;;;;;;-3.70;95.06;92765.22;1062303;56;20255;-83
2021/01/15 03:44:37;;;;;;;;;;;;;;;-3.65;95.18;92766.81;1062517;56;20151;-83
2021/01/15 03:45:39;;;;;;;;;;;;;;;-3.59;94.89;92768.09;1066916;55;20245;-82
2021/01/15 03:46:40;;;;;;;;;;;;;;;-3.56;94.83;92773.44;1064834;55;20798;-82
2021/01/15 03:47:42;;;;;;;;;;;;;;;-3.65;94.79;92780.63;1060502;56;20257;-82
2021/01/15 03:48:42;;;;;;;;;;;;;;;-3.62;94.58;92769.53;1064507;55;20193;-86
2021/01/15 03:49:44;;;;;;;;;;;;;;;-3.60;94.61;92780.41;1066854;55;20676;-83
2021/01/15 03:50:45;;;;;;;;;;;;;;;-3.67;94.28;92776.84;1064526;55;20158;-82
2021/01/15 03:51:47;;;;;;;;;;;;;;;-3.66;94.56;92779.12;1064643;55;20208;-83
2021/01/15 03:52:48;;;;;;;;;;;;;;;-3.63;94.18;92773.25;1062480;56;20239;-84
2021/01/15 03:53:49;;;;;;;;;;;;;;;-3.70;94.59;92777.50;1062353;56;20157;-84
2021/01/15 03:54:49;;;;;;;;;;;;;;;-3.66;93.96;92776.50;1062454;56;20186;-83
2021/01/15 03:55:50;;;;;;;;;;;;;;;-3.73;94.46;92776.34;1060370;56;20655;-84
2021/01/15 03:56:51;;;;;;;;;;;;;;;-3.63;94.10;92775.84;1062507;55;20647;-83
2021/01/15 03:57:52;;;;;;;;;;;;;;;-3.65;94.07;92785.09;1064738;55;20245;-83
2021/01/15 03:58:52;;;;;;;;;;;;;;;-3.65;93.82;92772.78;1064567;55;20728;-81
2021/01/15 03:59:53;;;;;;;;;;;;;;;-3.69;93.72;92784.25;1064627;55;20165;-85
2021/01/15 04:00:53;;;;;;;;;;;;;;;-3.76;94.15;92781.47;1062575;56;20234;-83
2021/01/15 04:01:54;;;;;;;;;;;;;;;-3.78;95.21;92781.78;1066578;55;20161;-83
2021/01/15 04:02:54;;;;;;;;;;;;;;;-3.78;94.60;92773.94;1064691;55;20622;-84
2021/01/15 04:03:55;;;;;;;;;;;;;;;-3.72;95.29;92774.50;1064643;55;20149;-84
2021/01/15 04:04:57;;;;;;;;;;;;;;;-3.75;94.36;92780.38;1064455;55;20247;-84
2021/01/15 04:05:58;;;;;;;;;;;;;;;-3.76;95.07;92778.88;1064765;55;20181;-83
2021/01/15 04:06:59;;;;;;;;;;;;;;;-3.74;95.36;92780.03;1062559;56;20680;-83
2021/01/15 04:08:00;;;;;;;;;;;;;;;-3.76;95.25;92781.47;1064776;55;20188;-83
2021/01/15 04:09:01;;;;;;;;;;;;;;;-3.82;94.05;92780.94;1062596;56;20154;-83
2021/01/15 04:10:05;;;;;;;;;;;;;;;-3.80;94.71;92784.00;1062645;55;20190;-83
2021/01/15 04:11:05;;;;;;;;;;;;;;;-3.84;94.37;92783.13;1062488;56;20252;-83
2021/01/15 04:12:06;;;;;;;;;;;;;;;-3.80;95.59;92786.59;1062511;55;20182;-83
2021/01/15 04:13:07;;;;;;;;;;;;;;;-3.81;96.05;92785.84;1066616;55;20244;-81
2021/01/15 04:14:09;;;;;;;;;;;;;;;-3.85;96.00;92784.22;1064410;55;20598;-84
2021/01/15 04:15:11;;;;;;;;;;;;;;;-3.82;95.08;92776.50;1060235;56;20710;-83
2021/01/15 04:16:12;;;;;;;;;;;;;;;-3.74;94.65;92787.09;1060305;56;20181;-84
2021/01/15 04:17:13;;;;;;;;;;;;;;;-3.76;94.02;92782.22;1064647;55;20253;-84
2021/01/15 04:18:14;;;;;;;;;;;;;;;-3.78;93.90;92787.00;1069165;55;20149;-84
2021/01/15 04:19:15;;;;;;;;;;;;;;;-3.77;94.31;92783.31;1064443;55;20173;-84
2021/01/15 04:20:16;;;;;;;;;;;;;;;-3.81;94.03;92782.47;1062349;55;21045;-84
2021/01/15 04:21:16;;;;;;;;;;;;;;;-3.77;94.99;92790.41;1066786;55;20157;-84
2021/01/15 04:22:17;;;;;;;;;;;;;;;-3.77;94.87;92787.78;1066727;55;20165;-83
2021/01/15 04:23:19;;;;;;;;;;;;;;;-3.82;94.42;92786.16;1064698;55;20266;-84
2021/01/15 04:24:20;;;;;;;;;;;;;;;-3.70;93.89;92783.50;1064961;55;20185;-83
2021/01/15 04:25:20;;;;;;;;;;;;;;;-3.69;94.79;92790.22;1064730;55;20157;-84
2021/01/15 04:26:21;;;;;;;;;;;;;;;-3.61;94.52;92786.72;1062576;56;20157;-83
2021/01/15 04:27:27;;;;;;;;;;;;;;;-3.67;94.18;92798.50;1062850;55;20158;-83
2021/01/15 04:28:30;;;;;;;;;;;;;;;-3.76;94.49;92791.91;1064450;55;20265;-83
2021/01/15 04:29:30;;;;;;;;;;;;;;;-3.77;94.62;92788.56;1060595;56;20182;-84
2021/01/15 04:30:30;;;;;;;;;;;;;;;-3.77;94.57;92793.00;1062599;56;20177;-84
2021/01/15 04:31:34;;;;;;;;;;;;;;;-3.74;94.06;92800.16;1064614;55;20162;-83
2021/01/15 04:32:35;;;;;;;;;;;;;;;-3.75;95.02;92801.25;1064698;55;20627;-83
2021/01/15 04:33:35;;;;;;;;;;;;;;;-3.78;95.74;92796.69;1064477;55;20165;-83
2021/01/15 04:34:36;;;;;;;;;;;;;;;-3.74;95.23;92800.16;1062389;56;20197;-84
2021/01/15 04:35:36;;;;;;;;;;;;;;;-3.84;95.21;92801.41;1060303;56;20244;-84
2021/01/15 04:36:39;;;;;;;;;;;;;;;-3.78;94.76;92801.91;1062680;55;20637;-84
2021/01/15 04:37:40;;;;;;;;;;;;;;;-3.86;95.42;92801.75;1064921;55;20169;-85
2021/01/15 04:38:41;;;;;;;;;;;;;;;-3.83;95.39;92797.69;1064743;55;21091;-83
2021/01/15 04:39:42;;;;;;;;;;;;;;;-3.80;94.87;92804.88;1064735;55;20252;-83
2021/01/15 04:40:43;;;;;;;;;;;;;;;-3.81;95.01;92798.13;1062472;56;20158;-84
2021/01/15 04:41:46;;;;;;;;;;;;;;;-3.77;95.23;92796.38;1062579;55;20252;-82
2021/01/15 04:42:48;;;;;;;;;;;;;;;-3.84;94.74;92804.00;1062606;56;20174;-82
2021/01/15 04:43:55;;;;;;;;;;;;;;;-3.80;95.03;92805.63;1060202;56;20185;-83
2021/01/15 04:44:55;;;;;;;;;;;;;;;-3.87;94.73;92804.66;1062877;55;20639;-83
2021/01/15 04:45:57;;;;;;;;;;;;;;;-3.80;94.53;92802.25;1066921;55;20172;-84
2021/01/15 04:47:00;;;;;;;;;;;;;;;-3.78;94.50;92794.84;1064513;55;20185;-83
2021/01/15 04:48:02;;;;;;;;;;;;;;;-3.83;95.63;92803.66;1062708;55;20639;-83
2021/01/15 04:49:07;;;;;;;;;;;;;;;-3.80;94.58;92807.47;1064857;55;20189;-83
2021/01/15 04:50:10;;;;;;;;;;;;;;;-3.86;94.98;92806.97;1062528;56;20181;-84
2021/01/15 04:51:14;;;;;;;;;;;;;;;-3.73;94.35;92810.28;1062619;55;20648;-85
2021/01/15 04:52:15;;;;;;;;;;;;;;;-3.83;93.94;92805.53;1064545;55;20212;-83
2021/01/15 04:53:20;;;;;;;;;;;;;;;-3.81;94.19;92805.97;1064518;55;20169;-83
2021/01/15 04:54:27;;;;;;;;;;;;;;;-3.79;95.42;92809.00;1064483;55;20178;-83
2021/01/15 04:55:30;;;;;;;;;;;;;;;-3.87;95.16;92815.88;1066642;55;20185;-83
2021/01/15 04:56:38;;;;;;;;;;;;;;;-3.85;95.48;92813.69;1062566;56;20744;-83
2021/01/15 04:57:39;;;;;;;;;;;;;;;-3.78;96.15;92815.72;1064734;55;20235;-84
2021/01/15 04:58:45;;;;;;;;;;;;;;;-3.83;94.44;92815.97;1064086;55;20236;-84
2021/01/15 04:59:47;;;;;;;;;;;;;;;-3.83;94.84;92811.50;1064822;55;20658;-83
2021/01/15 05:00:53;;;;;;;;;;;;;;;-3.85;94.94;92821.53;1062422;56;20177;-84
2021/01/15 05:02:00;;;;;;;;;;;;;;;-3.84;94.64;92824.91;1065123;55;20236;-83
2021/01/15 05:03:03;;;;;;;;;;;;;;;-3.84;94.64;92817.06;1066734;55;20192;-84
2021/01/15 05:04:08;;;;;;;;;;;;;;;-3.76;94.55;92815.41;1062514;56;20158;-85
2021/01/15 05:05:13;;;;;;;;;;;;;;;-3.82;93.99;92822.72;1062507;55;20155;-84
2021/01/15 05:06:15;;;;;;;;;;;;;;;-3.84;94.35;92817.06;1062610;56;20247;-82
2021/01/15 05:07:15;;;;;;;;;;;;;;;-3.76;95.46;92820.63;1062526;55;20185;-83
2021/01/15 05:08:24;;;;;;;;;;;;;;;-3.76;94.28;92816.16;1062588;56;20146;-82
2021/01/15 05:09:26;;;;;;;;;;;;;;;-3.77;94.48;92816.50;1065297;55;20193;-83
2021/01/15 05:10:28;;;;;;;;;;;;;;;-3.83;94.07;92816.72;1066726;55;20161;-83
2021/01/15 05:11:30;;;;;;;;;;;;;;;-3.82;94.05;92822.72;1064659;55;20168;-85
2021/01/15 05:12:30;;;;;;;;;;;;;;;-3.86;94.48;92824.50;1062540;56;20186;-83
2021/01/15 05:13:35;;;;;;;;;;;;;;;-3.77;93.75;92824.34;1062531;56;20185;-84
2021/01/15 05:14:36;;;;;;;;;;;;;;;-3.75;93.77;92819.53;1062943;55;20242;-84
2021/01/15 05:15:37;;;;;;;;;;;;;;;-3.82;93.63;92822.72;1062477;56;20697;-83
2021/01/15 05:16:39;;;;;;;;;;;;;;;-3.85;93.72;92826.00;1062378;55;20161;-83
2021/01/15 05:17:41;;;;;;;;;;;;;;;-3.86;94.28;92827.84;1066933;55;20180;-82
2021/01/15 05:18:44;;;;;;;;;;;;;;;-3.89;94.45;92822.53;1064635;55;20161;-83
2021/01/15 05:19:45;;;;;;;;;;;;;;;-3.91;94.81;92833.28;1062783;55;20626;-84
2021/01/15 05:20:46;;;;;;;;;;;;;;;-3.83;94.59;92827.16;1064478;55;20181;-84
2021/01/15 05:21:50;;;;;;;;;;;;;;;-3.86;94.56;92827.84;1064496;55;20181;-83
2021/01/15 05:22:51;;;;;;;;;;;;;;;-3.85;95.14;92833.84;1064758;55;20291;-84
2021/01/15 05:23:52;;;;;;;;;;;;;;;-3.74;94.63;92828.87;1064525;55;20658;-83
2021/01/15 05:24:52;;;;;;;;;;;;;;;-3.83;94.89;92826.41;1064717;55;20158;-85
2021/01/15 05:25:53;;;;;;;;;;;;;;;-3.88;94.22;92835.25;1062425;56;20611;-84